createdAt,value
2023-05-31T00:00:05.397Z,20.48
2023-05-31T00:02:35.131Z,20.54
2023-05-31T00:05:02.650Z,20.56
2023-05-31T00:07:29.953Z,20.69
2023-05-31T00:09:57.552Z,20.40
2023-05-31T00:12:25.044Z,20.68
2023-05-31T00:14:52.274Z,20.36
2023-05-31T00:19:49.964Z,20.59
2023-05-31T00:22:18.186Z,20.45
2023-05-31T00:24:46.291Z,20.40
2023-05-31T00:27:13.562Z,20.24
2023-05-31T00:29:43.197Z,20.31
2023-05-31T00:32:10.882Z,20.46
2023-05-31T00:34:38.398Z,20.60
2023-05-31T00:37:06.025Z,20.71
2023-05-31T00:39:33.976Z,20.45
2023-05-31T00:42:14.313Z,20.92
2023-05-31T00:44:42.651Z,20.85
2023-05-31T00:47:10.479Z,20.95
2023-05-31T00:49:37.944Z,21.10
2023-05-31T00:52:06.228Z,20.99
2023-05-31T00:54:34.004Z,21.14
2023-05-31T00:57:02.538Z,21.02
2023-05-31T00:59:31.051Z,21.09
2023-05-31T01:02:00.298Z,21.11
2023-05-31T01:04:28.181Z,21.37
2023-05-31T01:06:57.422Z,21.29
2023-05-31T01:09:24.935Z,21.17
2023-05-31T01:12:11.273Z,20.99
2023-05-31T01:14:45.277Z,21.21
2023-05-31T01:17:15.667Z,21.07
2023-05-31T01:19:51.876Z,20.86
2023-05-31T01:22:38.427Z,21.13
2023-05-31T01:25:18.809Z,20.83
2023-05-31T01:27:46.337Z,20.80
2023-05-31T01:30:14.072Z,20.87
2023-05-31T01:32:41.960Z,21.18
2023-05-31T01:35:10.125Z,20.87
2023-05-31T01:37:38.100Z,20.73
2023-05-31T01:40:06.432Z,20.78
2023-05-31T01:42:34.034Z,20.54
2023-05-31T01:45:01.686Z,20.58
2023-05-31T01:47:29.097Z,20.64
2023-05-31T01:49:56.569Z,21.02
2023-05-31T01:52:24.186Z,20.79
2023-05-31T01:54:51.671Z,21.26
2023-05-31T01:57:19.120Z,21.02
2023-05-31T01:59:47.040Z,21.04
2023-05-31T02:02:14.492Z,21.29
2023-05-31T02:04:42.147Z,21.37
2023-05-31T02:07:10.664Z,21.32
2023-05-31T02:09:37.985Z,21.45
2023-05-31T02:12:05.939Z,21.42
2023-05-31T02:14:33.177Z,21.35
2023-05-31T02:17:00.546Z,21.47
2023-05-31T02:19:30.247Z,21.41
2023-05-31T02:21:58.072Z,21.81
2023-05-31T02:24:29.504Z,21.58
2023-05-31T02:26:56.844Z,21.33
2023-05-31T02:29:26.024Z,21.79
2023-05-31T02:31:53.828Z,21.66
2023-05-31T02:34:22.026Z,21.96
2023-05-31T02:36:49.689Z,21.47
2023-05-31T02:39:17.302Z,21.78
2023-05-31T02:41:44.551Z,21.73
2023-05-31T02:44:12.089Z,21.46
2023-05-31T02:46:40.827Z,21.65
2023-05-31T02:49:08.770Z,21.65
2023-05-31T02:51:36.372Z,21.78
2023-05-31T02:54:05.029Z,21.55
2023-05-31T02:56:32.889Z,21.51
2023-05-31T02:59:01.420Z,21.79
2023-05-31T03:01:29.694Z,22.01
2023-05-31T03:03:58.185Z,21.69
2023-05-31T03:06:25.900Z,21.89
2023-05-31T03:08:53.560Z,21.92
2023-05-31T03:11:21.694Z,21.90
2023-05-31T03:13:49.023Z,21.85
2023-05-31T03:16:17.922Z,21.87
2023-05-31T03:18:45.849Z,21.67
2023-05-31T03:21:13.451Z,21.85
2023-05-31T03:23:41.472Z,21.73
2023-05-31T03:26:09.084Z,21.80
2023-05-31T03:28:36.937Z,21.43
2023-05-31T03:31:04.636Z,21.29
2023-05-31T03:33:32.711Z,21.71
2023-05-31T03:36:00.109Z,21.51
2023-05-31T03:38:27.973Z,21.45
2023-05-31T03:40:55.764Z,21.82
2023-05-31T03:43:23.480Z,21.84
2023-05-31T03:45:51.568Z,21.92
2023-05-31T03:48:19.320Z,21.76
2023-05-31T03:50:46.650Z,22.05
2023-05-31T03:53:14.833Z,21.95
2023-05-31T03:55:42.093Z,22.05
2023-05-31T03:58:09.372Z,22.16
2023-05-31T04:00:37.592Z,21.56
2023-05-31T04:03:05.665Z,21.53
2023-05-31T04:05:33.383Z,21.41
2023-05-31T04:08:03.191Z,21.85
2023-05-31T04:10:31.132Z,21.37
2023-05-31T04:12:58.443Z,21.46
2023-05-31T04:15:25.792Z,21.53
2023-05-31T04:17:53.772Z,21.35
2023-05-31T04:20:21.346Z,21.48
2023-05-31T04:22:49.615Z,21.43
2023-05-31T04:25:18.687Z,21.70
2023-05-31T04:27:47.006Z,22.01
2023-05-31T04:30:14.507Z,21.82
2023-05-31T04:32:42.653Z,21.84
2023-05-31T04:35:10.370Z,21.91
2023-05-31T04:37:38.796Z,21.98
2023-05-31T04:40:10.551Z,21.61
2023-05-31T04:42:38.428Z,21.76
2023-05-31T04:45:08.225Z,21.82
2023-05-31T04:47:36.768Z,22.16
2023-05-31T04:50:04.482Z,22.31
2023-05-31T04:52:33.113Z,21.92
2023-05-31T04:55:01.324Z,21.83
2023-05-31T04:57:30.682Z,21.94
2023-05-31T05:00:00.754Z,21.87
2023-05-31T05:02:30.269Z,22.05
2023-05-31T05:04:57.916Z,22.21
2023-05-31T05:07:26.107Z,22.49
2023-05-31T05:09:53.776Z,22.26
2023-05-31T05:12:23.351Z,22.52
2023-05-31T05:14:50.944Z,21.54
2023-05-31T05:17:18.651Z,22.33
2023-05-31T05:19:47.398Z,22.19
2023-05-31T05:22:14.930Z,22.27
2023-05-31T05:24:42.662Z,22.54
2023-05-31T05:27:10.343Z,22.64
2023-05-31T05:29:38.220Z,22.52
2023-05-31T05:32:06.238Z,22.37
2023-05-31T05:34:33.728Z,22.46
2023-05-31T05:37:01.307Z,22.56
2023-05-31T05:39:29.017Z,22.51
2023-05-31T05:41:56.356Z,22.35
2023-05-31T05:44:23.621Z,22.62
2023-05-31T05:46:51.224Z,22.24
2023-05-31T05:49:19.919Z,22.43
2023-05-31T05:51:47.780Z,22.71
2023-05-31T05:54:15.593Z,22.26
2023-05-31T05:57:07.514Z,22.60
2023-05-31T05:59:58.255Z,22.78
2023-05-31T06:02:41.984Z,22.84
2023-05-31T06:05:27.938Z,22.56
2023-05-31T06:08:15.115Z,23.20
2023-05-31T06:11:04.956Z,23.27
2023-05-31T06:13:44.201Z,23.25
2023-05-31T06:16:40.118Z,23.63
2023-05-31T06:19:19.025Z,23.53
2023-05-31T06:22:09.997Z,23.44
2023-05-31T06:24:38.754Z,23.62
2023-05-31T06:27:22.569Z,23.76
2023-05-31T06:30:14.289Z,24.12
2023-05-31T06:33:05.212Z,23.61
2023-05-31T06:35:52.307Z,23.98
2023-05-31T06:38:51.442Z,23.51
2023-05-31T06:41:35.724Z,23.63
2023-05-31T06:44:28.012Z,23.54
2023-05-31T06:47:19.191Z,23.63
2023-05-31T06:50:01.396Z,23.72
2023-05-31T06:52:44.078Z,24.41
2023-05-31T06:55:37.284Z,24.19
2023-05-31T06:58:33.985Z,24.13
2023-05-31T07:01:30.108Z,24.09
2023-05-31T07:04:09.221Z,24.07
2023-05-31T07:07:00.253Z,24.13
2023-05-31T07:09:39.457Z,23.87
2023-05-31T07:12:18.629Z,24.22
2023-05-31T07:15:11.063Z,24.29
2023-05-31T07:18:03.080Z,24.52
2023-05-31T07:20:58.228Z,24.64
2023-05-31T07:23:49.344Z,24.99
2023-05-31T07:26:28.249Z,25.06
2023-05-31T07:29:18.982Z,24.84
2023-05-31T07:31:58.358Z,24.72
2023-05-31T07:35:03.617Z,24.78
2023-05-31T07:37:28.216Z,24.97
2023-05-31T07:40:19.051Z,24.51
2023-05-31T07:42:58.230Z,24.71
2023-05-31T07:45:49.448Z,24.77
2023-05-31T07:48:29.581Z,24.56
2023-05-31T07:51:09.131Z,25.23
2023-05-31T07:53:48.359Z,25.13
2023-05-31T07:56:39.148Z,25.22
2023-05-31T07:59:19.198Z,25.87
2023-05-31T08:02:10.003Z,25.94
2023-05-31T08:05:11.355Z,26.04
2023-05-31T08:07:50.241Z,25.59
2023-05-31T08:10:41.090Z,26.16
2023-05-31T08:13:08.627Z,26.14
2023-05-31T08:16:00.040Z,26.16
2023-05-31T08:18:39.337Z,26.48
2023-05-31T08:21:19.021Z,26.11
2023-05-31T08:23:59.302Z,26.51
2023-05-31T08:26:51.512Z,26.72
2023-05-31T08:29:34.671Z,26.99
2023-05-31T08:32:25.005Z,26.63
2023-05-31T08:35:04.368Z,26.26
2023-05-31T08:37:56.404Z,26.27
2023-05-31T08:40:35.269Z,26.35
2023-05-31T08:43:17.572Z,26.38
2023-05-31T08:46:08.750Z,26.74
2023-05-31T08:48:55.278Z,26.90
2023-05-31T08:51:46.874Z,26.45
2023-05-31T08:54:26.303Z,26.56
2023-05-31T08:57:22.052Z,27.24
2023-05-31T08:59:51.641Z,27.07
2023-05-31T09:02:43.138Z,26.15
2023-05-31T09:05:22.243Z,26.99
2023-05-31T09:08:02.121Z,26.81
2023-05-31T09:10:41.786Z,27.29
2023-05-31T09:13:33.245Z,27.78
2023-05-31T09:16:12.431Z,27.51
2023-05-31T09:19:06.475Z,27.63
2023-05-31T09:21:45.823Z,27.93
2023-05-31T09:24:37.079Z,27.54
2023-05-31T09:27:16.208Z,28.16
2023-05-31T09:30:11.305Z,28.14
2023-05-31T09:32:54.616Z,28.40
2023-05-31T09:35:57.206Z,28.44
2023-05-31T09:38:36.838Z,28.30
2023-05-31T09:41:28.598Z,28.33
2023-05-31T09:44:08.807Z,28.33
2023-05-31T09:47:07.717Z,28.38
2023-05-31T09:49:46.336Z,28.35
2023-05-31T09:52:41.850Z,28.35
2023-05-31T09:55:21.267Z,29.07
2023-05-31T09:58:12.055Z,28.43
2023-05-31T10:00:51.272Z,29.11
2023-05-31T10:03:51.211Z,29.01
2023-05-31T10:06:30.330Z,28.59
2023-05-31T10:09:21.347Z,29.42
2023-05-31T10:12:00.256Z,29.24
2023-05-31T10:14:53.522Z,28.59
2023-05-31T10:17:39.759Z,29.03
2023-05-31T10:20:34.131Z,29.34
2023-05-31T10:23:19.455Z,29.40
2023-05-31T10:26:10.188Z,29.14
2023-05-31T10:28:56.818Z,29.87
2023-05-31T10:31:50.598Z,29.71
2023-05-31T10:34:29.563Z,29.73
2023-05-31T10:37:09.123Z,29.71
2023-05-31T10:39:48.996Z,29.46
2023-05-31T10:42:34.881Z,29.52
2023-05-31T10:45:27.771Z,30.31
2023-05-31T10:48:28.899Z,30.54
2023-05-31T10:51:08.273Z,29.69
2023-05-31T10:53:49.624Z,29.82
2023-05-31T10:56:29.269Z,30.53
2023-05-31T10:59:18.028Z,29.28
2023-05-31T11:02:06.650Z,29.88
2023-05-31T11:04:58.026Z,30.28
2023-05-31T11:07:41.236Z,29.77
2023-05-31T11:10:35.410Z,29.91
2023-05-31T11:13:14.354Z,30.19
2023-05-31T11:16:06.266Z,30.19
2023-05-31T11:18:45.257Z,30.25
2023-05-31T11:21:49.048Z,30.26
2023-05-31T11:24:35.214Z,30.28
2023-05-31T11:27:37.070Z,30.53
2023-05-31T11:30:16.713Z,30.42
2023-05-31T11:33:19.890Z,30.45
2023-05-31T11:36:02.618Z,29.87
2023-05-31T11:38:53.078Z,29.34
2023-05-31T11:41:32.286Z,28.65
2023-05-31T11:44:30.477Z,28.35
2023-05-31T11:47:11.442Z,28.27
2023-05-31T11:50:03.195Z,28.33
2023-05-31T11:52:42.432Z,28.96
2023-05-31T11:55:51.115Z,28.72
2023-05-31T11:58:44.465Z,29.00
2023-05-31T12:01:39.246Z,28.89
2023-05-31T12:04:30.888Z,29.33
2023-05-31T12:07:11.379Z,28.79
2023-05-31T12:10:02.056Z,28.95
2023-05-31T12:12:44.365Z,28.96
2023-05-31T12:15:35.572Z,29.09
2023-05-31T12:18:03.928Z,28.74
2023-05-31T12:20:55.219Z,28.87
2023-05-31T12:23:34.334Z,29.26
2023-05-31T12:26:02.497Z,29.94
2023-05-31T12:28:30.751Z,29.77
2023-05-31T12:31:39.388Z,29.19
2023-05-31T12:34:26.867Z,28.90
2023-05-31T12:37:23.129Z,28.62
2023-05-31T12:40:28.809Z,28.46
2023-05-31T12:43:02.922Z,29.13
2023-05-31T12:45:30.669Z,29.79
2023-05-31T12:48:02.577Z,29.76
2023-05-31T12:50:31.718Z,30.06
2023-05-31T12:53:22.234Z,30.15
2023-05-31T12:56:11.200Z,30.51
2023-05-31T12:59:03.717Z,30.52
2023-05-31T13:01:35.870Z,30.65
2023-05-31T13:04:15.824Z,30.51
2023-05-31T13:06:58.825Z,30.55
2023-05-31T13:09:50.654Z,30.69
2023-05-31T13:12:41.422Z,30.51
2023-05-31T13:15:32.369Z,30.61
2023-05-31T13:18:18.348Z,31.01
2023-05-31T13:21:09.179Z,30.70
2023-05-31T13:23:39.293Z,31.00
2023-05-31T13:26:28.411Z,30.93
2023-05-31T13:29:19.985Z,30.14
2023-05-31T13:32:10.706Z,30.48
2023-05-31T13:34:52.576Z,30.17
2023-05-31T13:37:30.404Z,30.16
2023-05-31T13:40:09.833Z,30.06
2023-05-31T13:42:57.730Z,29.95
2023-05-31T13:45:40.691Z,29.62
2023-05-31T13:48:22.380Z,29.79
2023-05-31T13:51:21.220Z,29.66
2023-05-31T13:53:49.102Z,29.76
2023-05-31T13:56:47.155Z,30.06
2023-05-31T13:59:15.516Z,30.17
2023-05-31T14:01:57.929Z,29.89
2023-05-31T14:04:51.241Z,29.89
2023-05-31T14:07:30.802Z,29.67
2023-05-31T14:10:23.006Z,29.97
2023-05-31T14:13:02.338Z,30.03
2023-05-31T14:15:53.599Z,29.95
2023-05-31T14:18:33.876Z,29.84
2023-05-31T14:21:20.083Z,29.94
2023-05-31T14:23:59.419Z,29.74
2023-05-31T14:26:50.170Z,29.36
2023-05-31T14:29:29.381Z,29.41
2023-05-31T14:32:20.226Z,29.79
2023-05-31T14:34:59.374Z,29.30
2023-05-31T14:37:56.206Z,29.31
2023-05-31T14:40:29.432Z,29.59
2023-05-31T14:43:20.228Z,29.69
2023-05-31T14:45:59.405Z,29.69
2023-05-31T14:48:50.144Z,29.73
2023-05-31T14:51:34.552Z,29.74
2023-05-31T14:54:25.244Z,29.37
2023-05-31T14:57:04.720Z,29.91
2023-05-31T14:59:56.109Z,30.00
2023-05-31T15:02:35.359Z,29.67
2023-05-31T15:05:28.997Z,29.72
2023-05-31T15:08:08.371Z,29.46
2023-05-31T15:11:02.220Z,29.53
2023-05-31T15:13:41.443Z,29.61
2023-05-31T15:16:32.399Z,29.53
2023-05-31T15:19:11.609Z,29.44
2023-05-31T15:22:05.589Z,29.63
2023-05-31T15:24:44.482Z,29.38
2023-05-31T15:27:35.151Z,29.44
2023-05-31T15:30:14.477Z,29.11
2023-05-31T15:32:53.798Z,29.08
2023-05-31T15:35:34.796Z,28.95
2023-05-31T15:38:17.215Z,29.49
2023-05-31T15:41:08.196Z,29.28
2023-05-31T15:43:47.340Z,29.08
2023-05-31T15:46:43.369Z,28.94
2023-05-31T15:49:22.519Z,28.69
2023-05-31T15:52:13.228Z,29.08
2023-05-31T15:54:52.459Z,29.19
2023-05-31T15:57:43.212Z,29.13
2023-05-31T16:00:22.606Z,29.18
2023-05-31T16:03:15.015Z,29.09
2023-05-31T16:05:54.518Z,29.05
2023-05-31T16:08:45.296Z,29.08
2023-05-31T16:11:25.319Z,29.10
2023-05-31T16:14:20.165Z,29.01
2023-05-31T16:17:02.271Z,29.03
2023-05-31T16:19:53.318Z,28.43
2023-05-31T16:22:21.188Z,28.67
2023-05-31T16:24:49.427Z,29.04
2023-05-31T16:27:17.818Z,29.18
2023-05-31T16:29:45.187Z,29.27
2023-05-31T16:32:12.854Z,29.13
2023-05-31T16:34:52.542Z,28.93
2023-05-31T16:37:43.170Z,28.97
2023-05-31T16:40:23.459Z,28.93
2023-05-31T16:43:14.177Z,28.92
2023-05-31T16:45:53.339Z,28.88
2023-05-31T16:48:44.244Z,28.84
2023-05-31T16:51:23.479Z,28.86
2023-05-31T16:54:16.990Z,28.74
2023-05-31T16:56:56.378Z,28.75
2023-05-31T16:59:51.587Z,28.58
2023-05-31T17:02:31.759Z,28.69
2023-05-31T17:05:23.145Z,28.78
2023-05-31T17:08:02.304Z,28.66
2023-05-31T17:10:53.191Z,28.68
2023-05-31T17:13:32.460Z,28.75
2023-05-31T17:16:15.357Z,28.78
2023-05-31T17:19:06.214Z,28.76
2023-05-31T17:21:45.592Z,28.58
2023-05-31T17:24:36.252Z,28.62
2023-05-31T17:27:15.510Z,28.61
2023-05-31T17:30:06.583Z,28.38
2023-05-31T17:32:46.886Z,28.35
2023-05-31T17:35:38.446Z,28.51
2023-05-31T17:38:18.226Z,28.50
2023-05-31T17:40:57.695Z,28.29
2023-05-31T17:43:36.489Z,28.02
2023-05-31T17:46:27.740Z,28.33
2023-05-31T17:49:07.639Z,28.27
2023-05-31T17:51:58.249Z,28.14
2023-05-31T17:54:37.433Z,27.92
2023-05-31T17:57:29.445Z,27.71
2023-05-31T18:00:15.109Z,27.63
2023-05-31T18:06:30.207Z,27.57
2023-05-31T18:09:21.425Z,27.40
2023-05-31T18:12:00.623Z,27.28
2023-05-31T18:14:51.538Z,27.28
2023-05-31T18:17:33.414Z,27.16
2023-05-31T18:20:24.437Z,27.05
2023-05-31T18:23:03.663Z,27.05
2023-05-31T18:25:55.942Z,27.00
2023-05-31T18:28:35.714Z,26.86
2023-05-31T18:31:31.626Z,26.84
2023-05-31T18:34:10.596Z,26.65
2023-05-31T18:37:10.572Z,26.62
2023-05-31T18:39:49.811Z,26.45
2023-05-31T18:42:32.171Z,26.40
2023-05-31T18:45:13.631Z,26.22
2023-05-31T18:47:53.930Z,26.17
2023-05-31T18:50:33.873Z,26.08
2023-05-31T18:53:26.880Z,26.10
2023-05-31T18:56:06.640Z,25.66
2023-05-31T18:59:06.187Z,25.60
2023-05-31T19:01:48.443Z,25.59
2023-05-31T19:04:39.404Z,25.44
2023-05-31T19:07:18.692Z,25.37
2023-05-31T19:10:09.812Z,25.11
2023-05-31T19:12:52.301Z,25.17
2023-05-31T19:15:43.578Z,25.04
2023-05-31T19:18:18.944Z,24.95
2023-05-31T19:20:51.695Z,24.91
2023-05-31T19:27:35.471Z,24.71
2023-05-31T19:30:31.351Z,24.66
2023-05-31T19:33:04.017Z,24.59
2023-05-31T19:36:03.826Z,24.49
2023-05-31T19:38:44.904Z,24.47
2023-05-31T19:41:37.369Z,24.32
2023-05-31T19:44:19.466Z,24.27
2023-05-31T19:47:10.225Z,24.30
2023-05-31T19:49:49.490Z,24.06
2023-05-31T19:52:41.278Z,24.16
2023-05-31T19:55:20.864Z,23.93
2023-05-31T19:58:12.311Z,23.90
2023-05-31T20:00:51.522Z,23.86
2023-05-31T20:03:42.434Z,23.87
2023-05-31T20:06:21.505Z,23.74
2023-05-31T20:09:12.895Z,23.81
2023-05-31T20:11:51.640Z,23.69
2023-05-31T20:14:45.287Z,23.66
2023-05-31T20:17:24.571Z,23.66
2023-05-31T20:20:15.396Z,23.56
2023-05-31T20:22:57.289Z,23.62
2023-05-31T20:25:39.745Z,23.45
2023-05-31T20:28:31.509Z,23.37
2023-05-31T20:31:10.753Z,23.34
2023-05-31T20:34:03.593Z,23.31
2023-05-31T20:36:42.635Z,23.31
2023-05-31T20:39:21.852Z,23.04
2023-05-31T20:42:01.673Z,23.01
2023-05-31T20:44:52.310Z,22.79
2023-05-31T20:47:31.906Z,22.73
2023-05-31T20:50:23.304Z,22.73
2023-05-31T20:53:02.630Z,22.80
2023-05-31T20:55:54.262Z,22.79
2023-05-31T20:58:33.445Z,22.58
2023-05-31T21:01:17.584Z,22.51
2023-05-31T21:03:58.353Z,22.44
2023-05-31T21:06:49.398Z,22.38
2023-05-31T21:09:31.349Z,22.31
2023-05-31T21:12:22.552Z,22.33
2023-05-31T21:15:01.658Z,22.17
2023-05-31T21:17:52.269Z,22.16
2023-05-31T21:20:31.862Z,22.03
2023-05-31T21:23:23.264Z,22.02
2023-05-31T21:26:02.924Z,21.96
2023-05-31T21:28:54.219Z,21.86
2023-05-31T21:31:27.622Z,21.90
2023-05-31T21:33:55.706Z,21.89
2023-05-31T21:36:22.998Z,21.86
2023-05-31T21:38:53.956Z,21.81
2023-05-31T21:41:22.167Z,21.86
2023-05-31T21:43:49.569Z,21.71
2023-05-31T21:46:16.900Z,21.53
2023-05-31T21:48:44.550Z,21.49
2023-05-31T21:51:11.996Z,21.43
2023-05-31T21:53:39.232Z,21.30
2023-05-31T21:56:06.951Z,21.29
2023-05-31T21:58:34.442Z,21.35
2023-05-31T22:01:02.068Z,21.19
2023-05-31T22:03:30.162Z,21.32
2023-05-31T22:05:57.642Z,21.28
2023-05-31T22:08:25.023Z,21.14
2023-05-31T22:10:52.716Z,21.14
2023-05-31T22:13:20.044Z,21.11
2023-05-31T22:15:51.649Z,20.96
2023-05-31T22:18:21.478Z,21.06
2023-05-31T22:20:54.154Z,20.94
2023-05-31T22:23:22.817Z,20.91
2023-05-31T22:25:50.840Z,20.93
2023-05-31T22:28:18.454Z,20.88
2023-05-31T22:30:46.121Z,20.76
2023-05-31T22:33:13.440Z,20.80
2023-05-31T22:35:40.976Z,20.81
2023-05-31T22:38:08.682Z,20.45
2023-05-31T22:40:37.721Z,20.41
2023-05-31T22:43:05.354Z,20.33
2023-05-31T22:45:32.996Z,20.40
2023-05-31T22:48:00.657Z,20.46
2023-05-31T22:50:28.496Z,20.36
2023-05-31T22:52:56.450Z,20.20
2023-05-31T22:55:24.112Z,20.26
2023-05-31T22:57:52.312Z,20.33
2023-05-31T23:00:21.306Z,20.18
2023-05-31T23:02:48.677Z,20.18
2023-05-31T23:05:16.540Z,20.13
2023-05-31T23:07:47.825Z,20.27
2023-05-31T23:10:16.130Z,20.21
2023-05-31T23:12:44.521Z,20.12
2023-05-31T23:15:12.365Z,20.06
2023-05-31T23:17:41.736Z,20.09
2023-05-31T23:20:13.723Z,19.94
2023-05-31T23:22:41.268Z,19.83
2023-05-31T23:25:10.292Z,20.01
2023-05-31T23:27:41.113Z,19.90
2023-05-31T23:30:09.436Z,19.89
2023-05-31T23:32:37.617Z,19.95
2023-05-31T23:35:05.568Z,19.80
2023-05-31T23:37:33.134Z,19.78
2023-05-31T23:40:01.617Z,19.79
2023-05-31T23:42:29.382Z,19.77
2023-05-31T23:44:56.865Z,19.71
2023-05-31T23:47:24.931Z,19.53
2023-05-31T23:49:52.304Z,19.52
2023-05-31T23:52:19.852Z,19.37
2023-05-31T23:54:48.508Z,19.48
2023-05-31T23:57:16.094Z,19.50
2023-05-31T23:59:44.869Z,19.32
